createdAt,value
2019-05-03T00:02:26.114Z,69.67
2019-05-03T00:05:03.074Z,69.66
2019-05-03T00:07:34.888Z,69.87
2019-05-03T00:10:08.753Z,70.03
2019-05-03T00:12:42.174Z,69.97
2019-05-03T00:15:26.570Z,70.20
2019-05-03T00:17:59.361Z,70.14
2019-05-03T00:20:32.670Z,70.08
2019-05-03T00:23:05.024Z,70.36
2019-05-03T00:25:36.865Z,70.13
2019-05-03T00:28:08.600Z,69.97
2019-05-03T00:30:42.269Z,69.80
2019-05-03T00:33:13.850Z,71.21
2019-05-03T00:35:47.319Z,72.34
2019-05-03T00:38:18.965Z,73.45
2019-05-03T00:40:52.378Z,74.18
2019-05-03T00:43:24.101Z,74.61
2019-05-03T00:45:55.823Z,74.90
2019-05-03T00:48:27.552Z,73.86
2019-05-03T00:50:59.278Z,74.43
2019-05-03T00:53:31.748Z,73.62
2019-05-03T00:56:03.692Z,71.68
2019-05-03T00:58:37.170Z,71.48
2019-05-03T01:01:08.953Z,71.20
2019-05-03T01:03:41.849Z,71.58
2019-05-03T01:06:13.601Z,72.04
2019-05-03T01:08:45.305Z,72.20
2019-05-03T01:11:17.032Z,73.26
2019-05-03T01:13:51.993Z,72.43
2019-05-03T01:16:24.960Z,72.29
2019-05-03T01:18:56.672Z,73.18
2019-05-03T01:21:28.394Z,72.18
2019-05-03T01:24:01.672Z,70.98
2019-05-03T01:26:33.423Z,72.25
2019-05-03T01:29:05.523Z,71.84
2019-05-03T01:31:37.240Z,71.49
2019-05-03T01:34:12.523Z,72.37
2019-05-03T01:36:44.143Z,70.93
2019-05-03T01:39:15.944Z,72.00
2019-05-03T01:41:47.663Z,72.06
2019-05-03T01:44:19.509Z,72.64
2019-05-03T01:46:52.855Z,72.10
2019-05-03T01:49:29.037Z,72.70
2019-05-03T01:52:06.144Z,72.00
2019-05-03T01:54:39.029Z,72.96
2019-05-03T01:57:11.604Z,72.42
2019-05-03T01:59:43.540Z,73.01
2019-05-03T02:02:34.166Z,72.29
2019-05-03T02:05:19.755Z,73.43
2019-05-03T02:07:51.989Z,73.09
2019-05-03T02:10:23.762Z,73.49
2019-05-03T02:12:55.778Z,73.98
2019-05-03T02:15:27.599Z,74.46
2019-05-03T02:17:59.316Z,74.48
2019-05-03T02:20:32.406Z,75.21
2019-05-03T02:23:04.898Z,75.67
2019-05-03T02:25:36.779Z,75.40
2019-05-03T02:28:08.489Z,75.85
2019-05-03T02:30:43.672Z,76.22
2019-05-03T02:33:13.898Z,76.59
2019-05-03T02:35:45.618Z,76.39
2019-05-03T02:38:17.337Z,76.68
2019-05-03T02:40:49.155Z,77.43
2019-05-03T02:43:26.002Z,77.03
2019-05-03T02:46:02.300Z,76.82
2019-05-03T02:48:36.237Z,75.64
2019-05-03T02:51:07.210Z,76.53
2019-05-03T02:53:39.023Z,76.31
2019-05-03T02:56:18.287Z,74.69
2019-05-03T02:58:46.076Z,73.74
2019-05-03T03:01:18.539Z,73.78
2019-05-03T03:03:51.494Z,73.05
2019-05-03T03:06:26.825Z,72.18
2019-05-03T03:09:00.282Z,71.26
2019-05-03T03:11:37.481Z,69.84
2019-05-03T03:14:16.461Z,70.31
2019-05-03T03:16:50.892Z,69.27
2019-05-03T03:19:26.160Z,69.03
2019-05-03T03:22:01.268Z,67.87
2019-05-03T03:24:36.131Z,69.39
2019-05-03T03:27:12.228Z,67.85
2019-05-03T03:29:49.226Z,67.92
2019-05-03T03:32:29.779Z,67.96
2019-05-03T03:35:20.627Z,68.20
2019-05-03T03:37:51.421Z,67.79
2019-05-03T03:40:25.398Z,67.97
2019-05-03T03:43:00.590Z,67.92
2019-05-03T03:45:36.205Z,66.63
2019-05-03T03:48:11.036Z,66.30
2019-05-03T03:50:49.088Z,67.55
2019-05-03T03:53:26.163Z,68.46
2019-05-03T03:55:57.902Z,67.83
2019-05-03T03:58:30.494Z,67.75
2019-05-03T04:01:02.679Z,67.03
2019-05-03T04:03:36.234Z,66.83
2019-05-03T04:06:08.331Z,67.05
2019-05-03T04:08:45.130Z,67.61
2019-05-03T04:11:16.581Z,68.33
2019-05-03T04:13:48.809Z,68.05
2019-05-03T04:16:21.966Z,68.11
2019-05-03T04:18:58.408Z,68.62
2019-05-03T04:21:30.113Z,68.24
2019-05-03T04:24:02.204Z,69.26
2019-05-03T04:26:35.782Z,69.19
2019-05-03T04:29:07.693Z,69.13
2019-05-03T04:31:42.282Z,69.60
2019-05-03T04:34:16.215Z,68.87
2019-05-03T04:36:47.302Z,69.34
2019-05-03T04:39:20.242Z,69.14
2019-05-03T04:41:52.305Z,70.53
2019-05-03T04:44:26.054Z,68.47
2019-05-03T04:46:58.409Z,69.34
2019-05-03T04:49:30.427Z,67.81
2019-05-03T04:52:02.146Z,67.52
2019-05-03T04:54:41.293Z,66.96
2019-05-03T04:57:15.817Z,65.44
2019-05-03T04:59:46.356Z,65.26
2019-05-03T05:02:18.056Z,64.78
2019-05-03T05:04:49.898Z,63.42
2019-05-03T05:07:21.615Z,62.43
2019-05-03T05:09:56.244Z,62.44
2019-05-03T05:12:27.577Z,61.47
2019-05-03T05:14:59.305Z,59.38
2019-05-03T05:17:35.348Z,60.61
2019-05-03T05:20:09.350Z,60.86
2019-05-03T05:22:41.061Z,60.54
2019-05-03T05:25:14.887Z,60.71
2019-05-03T05:28:00.451Z,60.17
2019-05-03T05:30:32.751Z,55.10
2019-05-03T05:33:05.436Z,55.82
2019-05-03T05:35:37.375Z,52.41
2019-05-03T05:38:09.107Z,46.10
2019-05-03T05:40:40.844Z,44.50
2019-05-03T05:43:12.664Z,45.09
2019-05-03T05:45:44.917Z,39.13
2019-05-03T05:48:18.449Z,40.75
2019-05-03T05:50:50.040Z,41.99
2019-05-03T05:53:21.856Z,38.28
2019-05-03T05:56:11.412Z,34.75
2019-05-03T05:58:55.363Z,36.07
2019-05-03T06:01:29.418Z,36.96
2019-05-03T06:04:01.152Z,38.34
2019-05-03T06:06:34.889Z,38.59
2019-05-03T06:09:15.338Z,39.87
2019-05-03T06:11:51.692Z,40.58
2019-05-03T08:37:18.615Z,33.65
2019-05-03T08:39:44.908Z,32.52
2019-05-03T08:42:28.549Z,33.31
2019-05-03T08:44:57.543Z,34.80
2019-05-03T08:47:34.396Z,35.54
2019-05-03T08:50:08.066Z,35.40
2019-05-03T08:52:39.714Z,35.49
2019-05-03T08:55:15.990Z,35.67
2019-05-03T08:57:50.191Z,35.85
2019-05-03T09:00:32.936Z,35.26
2019-05-03T09:03:05.920Z,36.16
2019-05-03T09:05:41.922Z,34.96
2019-05-03T09:08:26.247Z,34.16
2019-05-03T09:11:02.198Z,34.48
2019-05-03T09:13:52.696Z,35.08
2019-05-03T09:16:28.976Z,35.87
2019-05-03T09:19:00.843Z,36.12
2019-05-03T09:21:34.609Z,35.89
2019-05-03T09:24:07.700Z,34.71
2019-05-03T09:26:39.238Z,35.01
2019-05-03T09:29:10.969Z,35.54
2019-05-03T09:31:44.629Z,34.82
2019-05-03T09:34:16.340Z,34.04
2019-05-03T09:36:48.103Z,32.21
2019-05-03T09:39:19.868Z,30.97
2019-05-03T09:41:51.595Z,30.62
2019-05-03T09:44:31.159Z,30.36
2019-05-03T09:47:05.612Z,30.37
2019-05-03T09:49:42.477Z,29.87
2019-05-03T09:52:18.339Z,30.50
2019-05-03T09:54:57.352Z,29.71
2019-05-03T09:57:30.218Z,30.02
2019-05-03T10:00:07.790Z,29.67
2019-05-03T10:02:40.666Z,29.76
2019-05-03T10:05:15.452Z,30.70
2019-05-03T10:07:48.015Z,29.72
2019-05-03T10:10:19.719Z,30.37
2019-05-03T10:12:58.849Z,30.01
2019-05-03T10:15:44.990Z,28.78
2019-05-03T10:18:22.418Z,28.44
2019-05-03T10:20:56.157Z,29.69
2019-05-03T10:23:35.975Z,29.06
2019-05-03T10:26:08.671Z,28.81
2019-05-03T10:28:41.592Z,27.18
2019-05-03T10:31:14.651Z,28.39
2019-05-03T10:33:51.201Z,26.93
2019-05-03T10:36:26.809Z,27.33
2019-05-03T10:38:58.468Z,28.29
2019-05-03T10:41:30.206Z,27.79
2019-05-03T10:44:02.032Z,28.41
2019-05-03T10:46:35.708Z,27.80
2019-05-03T10:49:07.340Z,27.79
2019-05-03T10:51:41.324Z,29.03
2019-05-03T10:54:14.651Z,28.43
2019-05-03T10:56:56.694Z,27.64
2019-05-03T10:59:28.540Z,27.77
2019-05-03T11:02:07.815Z,28.28
2019-05-03T11:04:39.460Z,29.75
2019-05-03T11:07:11.230Z,30.49
2019-05-03T11:09:49.698Z,30.41
2019-05-03T11:12:17.826Z,31.29
2019-05-03T11:14:49.896Z,30.51
2019-05-03T11:17:21.733Z,30.68
2019-05-03T11:19:54.736Z,30.26
2019-05-03T11:22:26.943Z,29.43
2019-05-03T11:24:58.692Z,29.57
2019-05-03T11:27:41.211Z,28.99
2019-05-03T11:30:15.737Z,30.88
2019-05-03T11:32:51.978Z,30.02
2019-05-03T11:35:25.163Z,30.94
2019-05-03T11:37:58.454Z,32.00
2019-05-03T11:40:30.128Z,31.08
2019-05-03T11:43:04.659Z,31.66
2019-05-03T11:45:36.450Z,30.73
2019-05-03T11:48:08.198Z,30.37
2019-05-03T11:50:39.968Z,30.06
2019-05-03T11:53:11.728Z,29.68
2019-05-03T11:55:46.254Z,29.06
2019-05-03T11:58:25.790Z,27.44
2019-05-03T12:01:15.325Z,27.61
2019-05-03T12:03:45.625Z,28.53
2019-05-03T12:06:17.251Z,29.35
2019-05-03T12:08:48.992Z,28.55
2019-05-03T12:11:20.762Z,29.10
2019-05-03T12:14:02.417Z,30.71
2019-05-03T12:17:07.768Z,28.66
2019-05-03T12:19:15.692Z,29.89
2019-05-03T12:21:37.580Z,29.98
2019-05-03T12:24:15.216Z,28.07
2019-05-03T12:26:47.008Z,28.57
2019-05-03T12:29:18.844Z,26.84
2019-05-03T12:31:50.495Z,26.94
2019-05-03T12:34:22.222Z,26.25
2019-05-03T12:36:53.959Z,26.42
2019-05-03T12:39:30.127Z,26.82
2019-05-03T12:42:02.366Z,28.11
2019-05-03T12:44:35.452Z,27.17
2019-05-03T12:47:07.141Z,28.00
2019-05-03T12:49:38.980Z,28.08
2019-05-03T12:52:11.239Z,27.43
2019-05-03T12:54:44.641Z,28.21
2019-05-03T12:57:16.400Z,28.16
2019-05-03T12:59:52.706Z,29.74
2019-05-03T13:02:41.215Z,27.52
2019-05-03T13:05:12.999Z,27.62
2019-05-03T13:07:46.183Z,27.43
2019-05-03T13:10:22.339Z,27.85
2019-05-03T13:12:53.353Z,27.39
2019-05-03T13:15:24.576Z,28.42
2019-05-03T13:17:56.298Z,27.65
2019-05-03T13:20:28.721Z,28.87
2019-05-03T13:23:00.797Z,28.42
2019-05-03T13:25:32.427Z,28.81
2019-05-03T13:28:05.491Z,29.06
2019-05-03T13:30:37.499Z,26.49
2019-05-03T13:33:09.270Z,27.13
2019-05-03T13:35:41.043Z,27.28
2019-05-03T13:38:12.947Z,27.67
2019-05-03T13:40:45.756Z,27.36
2019-05-03T13:43:17.362Z,27.21
2019-05-03T13:45:52.127Z,27.52
2019-05-03T13:48:26.268Z,26.30
2019-05-03T13:50:57.652Z,25.36
2019-05-03T13:53:29.486Z,25.19
2019-05-03T13:56:01.223Z,25.93
2019-05-03T13:58:32.935Z,26.11
2019-05-03T14:01:05.694Z,26.42
2019-05-03T14:03:38.592Z,26.70
2019-05-03T14:06:12.352Z,26.73
2019-05-03T14:08:45.481Z,27.57
2019-05-03T14:11:21.097Z,28.35
2019-05-03T14:14:01.837Z,26.63
2019-05-03T14:16:33.456Z,27.10
2019-05-03T14:19:09.899Z,28.56
2019-05-03T14:21:47.597Z,28.00
2019-05-03T14:24:19.431Z,27.59
2019-05-03T14:26:51.173Z,27.30
2019-05-03T14:29:25.223Z,26.86
2019-05-03T14:31:56.543Z,27.12
2019-05-03T14:34:28.283Z,26.89
2019-05-03T14:37:00.023Z,27.65
2019-05-03T14:39:31.767Z,27.58
2019-05-03T14:42:04.857Z,28.33
2019-05-03T14:44:37.443Z,27.77
2019-05-03T14:47:11.364Z,27.80
2019-05-03T14:49:47.973Z,28.18
2019-05-03T14:52:25.134Z,28.00
2019-05-03T14:55:06.473Z,27.31
2019-05-03T14:57:42.081Z,27.31
2019-05-03T15:00:18.969Z,27.97
2019-05-03T15:02:55.395Z,27.29
2019-05-03T15:05:31.702Z,27.24
2019-05-03T15:08:15.011Z,26.91
2019-05-03T15:10:47.711Z,26.29
2019-05-03T15:13:19.429Z,26.89
2019-05-03T15:15:51.180Z,27.17
2019-05-03T15:18:22.924Z,27.68
2019-05-03T15:20:55.546Z,27.93
2019-05-03T15:23:28.313Z,28.04
2019-05-03T15:25:59.951Z,28.68
2019-05-03T15:28:31.955Z,27.66
2019-05-03T15:31:09.607Z,28.14
2019-05-03T15:33:41.281Z,28.00
2019-05-03T15:36:15.467Z,27.48
2019-05-03T15:38:48.844Z,27.64
2019-05-03T15:41:25.134Z,27.12
2019-05-03T15:43:59.141Z,27.83
2019-05-03T15:46:36.720Z,28.56
2019-05-03T15:49:08.570Z,28.10
2019-05-03T15:51:40.303Z,28.25
2019-05-03T15:54:15.755Z,27.86
2019-05-03T15:56:49.268Z,28.84
2019-05-03T15:59:21.162Z,27.93
2019-05-03T16:01:52.911Z,28.25
2019-05-03T16:04:25.131Z,28.36
2019-05-03T16:06:57.300Z,28.15
2019-05-03T16:09:29.223Z,28.52
2019-05-03T16:12:00.854Z,29.11
2019-05-03T16:14:32.621Z,28.85
2019-05-03T16:17:04.532Z,28.76
2019-05-03T16:19:36.426Z,28.91
2019-05-03T16:22:08.172Z,29.84
2019-05-03T16:24:39.907Z,30.50
2019-05-03T16:27:19.004Z,30.28
2019-05-03T16:29:50.844Z,30.21
2019-05-03T16:32:22.587Z,30.99
2019-05-03T16:34:54.989Z,31.11
2019-05-03T16:37:26.753Z,30.50
2019-05-03T16:39:58.670Z,31.53
2019-05-03T16:42:30.532Z,31.06
2019-05-03T16:45:02.266Z,30.17
2019-05-03T16:47:35.449Z,30.48
2019-05-03T16:50:08.242Z,31.15
2019-05-03T16:52:40.069Z,30.71
2019-05-03T16:55:12.101Z,31.44
2019-05-03T16:57:44.319Z,30.95
2019-05-03T17:00:18.082Z,31.26
2019-05-03T17:02:49.835Z,31.89
2019-05-03T17:05:39.488Z,32.66
2019-05-03T17:08:15.620Z,32.63
2019-05-03T17:10:51.757Z,32.50
2019-05-03T17:13:25.161Z,32.57
2019-05-03T17:15:56.847Z,33.02
2019-05-03T17:18:28.693Z,32.57
2019-05-03T17:21:00.441Z,32.44
2019-05-03T17:23:32.167Z,32.36
2019-05-03T17:26:03.919Z,32.63
2019-05-03T17:28:35.650Z,32.69
2019-05-03T17:31:07.490Z,32.74
2019-05-03T17:33:50.469Z,33.00
2019-05-03T17:36:12.789Z,33.87
2019-05-03T17:38:45.608Z,33.42
2019-05-03T17:41:34.718Z,34.33
2019-05-03T17:44:09.797Z,34.31
2019-05-03T17:46:41.647Z,34.29
2019-05-03T17:49:14.728Z,34.56
2019-05-03T17:51:49.404Z,34.96
2019-05-03T17:54:27.241Z,35.01
2019-05-03T17:57:04.559Z,35.32
2019-05-03T17:59:41.580Z,35.45
2019-05-03T18:02:15.420Z,35.38
2019-05-03T18:05:05.354Z,36.40
2019-05-03T18:07:54.924Z,36.25
2019-05-03T18:10:28.147Z,35.74
2019-05-03T18:12:59.804Z,36.54
2019-05-03T18:15:31.459Z,36.81
2019-05-03T18:18:05.135Z,37.53
2019-05-03T18:20:38.003Z,37.27
2019-05-03T18:23:09.899Z,37.19
2019-05-03T18:25:41.612Z,37.55
2019-05-03T18:28:14.981Z,38.11
2019-05-03T18:30:46.761Z,37.93
2019-05-03T18:33:18.670Z,38.02
2019-05-03T18:35:50.457Z,39.14
2019-05-03T18:38:25.210Z,38.95
2019-05-03T18:40:59.336Z,39.38
2019-05-03T18:43:37.585Z,40.31
2019-05-03T18:46:28.063Z,39.31
2019-05-03T18:49:04.482Z,39.63
2019-05-03T18:51:37.516Z,40.12
2019-05-03T18:54:15.625Z,41.27
2019-05-03T18:56:48.787Z,41.87
2019-05-03T18:59:22.186Z,41.44
2019-05-03T19:01:56.292Z,41.71
2019-05-03T19:04:37.337Z,42.27
2019-05-03T19:07:10.451Z,43.85
2019-05-03T19:09:51.188Z,42.27
2019-05-03T19:12:28.889Z,43.30
2019-05-03T19:15:05.182Z,43.68
2019-05-03T19:17:54.712Z,43.90
2019-05-03T19:20:30.211Z,43.42
2019-05-03T19:23:02.224Z,43.13
2019-05-03T19:25:45.818Z,43.82
2019-05-03T19:28:08.215Z,43.65
2019-05-03T19:30:44.417Z,43.39
2019-05-03T19:33:16.305Z,44.39
2019-05-03T19:35:48.217Z,44.01
2019-05-03T19:38:19.850Z,44.34
2019-05-03T19:40:54.714Z,45.06
2019-05-03T19:43:27.028Z,45.53
2019-05-03T19:46:00.670Z,45.40
2019-05-03T19:48:34.787Z,45.60
2019-05-03T19:51:09.356Z,46.58
2019-05-03T19:53:47.419Z,47.34
2019-05-03T19:56:19.915Z,47.83
2019-05-03T19:58:55.343Z,48.47
2019-05-03T20:01:51.292Z,47.69
2019-05-03T20:04:33.086Z,47.40
2019-05-03T20:07:21.683Z,47.53
2019-05-03T20:09:54.477Z,48.84
2019-05-03T20:12:28.052Z,49.10
2019-05-03T20:15:01.426Z,48.62
2019-05-03T20:17:54.010Z,48.98
2019-05-03T20:20:10.165Z,49.73
2019-05-03T20:22:45.097Z,49.72
2019-05-03T20:25:17.673Z,49.48
2019-05-03T20:27:49.366Z,50.22
2019-05-03T20:30:23.151Z,51.12
2019-05-03T20:33:03.872Z,50.83
2019-05-03T20:35:45.233Z,51.55
2019-05-03T20:38:17.354Z,51.18
2019-05-03T20:40:49.423Z,51.61
2019-05-03T20:43:39.183Z,52.48
2019-05-03T20:46:10.799Z,51.45
2019-05-03T20:48:44.825Z,51.36
2019-05-03T20:51:16.997Z,52.39
2019-05-03T20:53:48.781Z,51.93
2019-05-03T20:56:21.876Z,52.03
2019-05-03T20:58:54.993Z,52.65
2019-05-03T21:01:45.934Z,52.49
2019-05-03T21:04:21.085Z,52.52
2019-05-03T21:06:55.181Z,53.58
2019-05-03T21:09:29.077Z,53.10
2019-05-03T21:12:01.780Z,53.81
2019-05-03T21:14:35.026Z,54.41
2019-05-03T21:17:20.182Z,54.04
2019-05-03T21:19:55.215Z,53.74
2019-05-03T21:22:29.980Z,53.73
2019-05-03T21:25:10.310Z,53.88
2019-05-03T21:27:44.829Z,53.65
2019-05-03T21:30:17.856Z,53.62
2019-05-03T21:33:05.275Z,53.28
2019-05-03T21:35:41.563Z,53.28
2019-05-03T21:38:10.580Z,53.50
2019-05-03T21:40:42.342Z,53.85
2019-05-03T21:43:15.246Z,53.68
2019-05-03T21:45:51.862Z,54.01
2019-05-03T21:48:28.185Z,53.74
2019-05-03T21:50:59.837Z,54.34
2019-05-03T21:53:31.582Z,54.09
2019-05-03T21:56:04.082Z,54.10
2019-05-03T21:58:35.708Z,54.01
2019-05-03T22:01:15.664Z,54.75
2019-05-03T22:03:44.752Z,54.25
2019-05-03T22:06:17.191Z,55.60
2019-05-03T22:08:48.907Z,56.21
2019-05-03T22:11:20.641Z,55.95
2019-05-03T22:13:54.253Z,55.46
2019-05-03T22:16:29.201Z,56.18
2019-05-03T22:19:00.823Z,56.12
2019-05-03T22:21:36.867Z,55.58
2019-05-03T22:24:20.128Z,55.32
2019-05-03T22:26:53.583Z,55.42
2019-05-03T22:29:25.964Z,55.45
2019-05-03T22:31:57.784Z,56.02
2019-05-03T22:34:29.555Z,56.16
2019-05-03T22:37:01.287Z,56.13
2019-05-03T22:39:33.009Z,55.87
2019-05-03T22:42:05.115Z,56.07
2019-05-03T22:44:36.862Z,55.90
2019-05-03T22:47:09.835Z,56.18
2019-05-03T22:49:41.722Z,56.25
2019-05-03T22:52:15.275Z,55.63
2019-05-03T22:54:48.319Z,55.05
2019-05-03T22:57:19.956Z,55.38
2019-05-03T22:59:51.694Z,55.51
2019-05-03T23:02:24.852Z,55.55
2019-05-03T23:04:57.109Z,55.71
2019-05-03T23:07:28.847Z,55.49
2019-05-03T23:10:00.577Z,56.49
2019-05-03T23:12:34.695Z,56.07
2019-05-03T23:15:11.387Z,55.56
2019-05-03T23:17:45.020Z,56.00
2019-05-03T23:20:25.448Z,55.89
2019-05-03T23:22:57.288Z,55.86
2019-05-03T23:25:30.720Z,55.91
2019-05-03T23:28:02.687Z,55.92
2019-05-03T23:30:36.625Z,55.02
2019-05-03T23:33:08.553Z,54.97
2019-05-03T23:35:40.288Z,54.89
2019-05-03T23:38:12.026Z,55.32
2019-05-03T23:40:44.760Z,56.30
2019-05-03T23:43:16.474Z,56.61
2019-05-03T23:45:49.374Z,56.20
2019-05-03T23:48:20.921Z,56.39
2019-05-03T23:50:52.751Z,56.15
2019-05-03T23:53:24.476Z,56.51
2019-05-03T23:55:58.912Z,56.05
2019-05-03T23:58:30.759Z,55.52
